Time;durP1;ratioP1;P1;durP2;ratioP2;P2;SDS_P1;SDS_P2;PMS_P1;PMS_P2;Temp;Humidity;BMP_temperature;BMP_pressure;BME280_temperature;BME280_humidity;BME280_pressure;Samples;Min_cycle;Max_cycle;Signal;HPM_P1;HPM_P2
2023/07/04 00:01:09;;;;;;;7.30;6.90;;;19.60;27.50;;;;;;5032045;28;20436;-77
2023/07/04 00:03:36;;;;;;;8.07;7.60;;;19.60;27.50;;;;;;5031259;28;20522;-77
2023/07/04 00:06:04;;;;;;;8.00;7.60;;;19.60;27.60;;;;;;5030550;28;20411;-77
2023/07/04 00:08:35;;;;;;;7.73;7.33;;;19.50;28.40;;;;;;5030943;28;20411;-77
2023/07/04 00:11:04;;;;;;;7.37;7.17;;;19.40;28.10;;;;;;5032122;28;20482;-77
2023/07/04 00:13:31;;;;;;;8.30;7.90;;;19.40;28.20;;;;;;5029602;28;20533;-77
2023/07/04 00:15:57;;;;;;;8.20;7.80;;;19.40;28.20;;;;;;5032983;28;20410;-76
2023/07/04 00:18:25;;;;;;;7.90;7.60;;;19.40;28.30;;;;;;5032014;28;20444;-77
2023/07/04 00:20:54;;;;;;;8.07;7.57;;;19.30;28.50;;;;;;5032377;28;20461;-76
2023/07/04 00:23:24;;;;;;;7.90;7.60;;;19.30;28.70;;;;;;5030824;28;20840;-77
2023/07/04 00:25:50;;;;;;;8.03;7.37;;;19.30;28.80;;;;;;5031946;28;20399;-77
2023/07/04 00:28:15;;;;;;;8.67;8.27;;;19.30;29.20;;;;;;5031221;28;20422;-77
2023/07/04 00:30:42;;;;;;;8.10;7.73;;;19.40;29.10;;;;;;5033892;28;20169;-77
2023/07/04 00:33:07;;;;;;;8.33;7.93;;;19.30;29.50;;;;;;5032349;28;20207;-77
2023/07/04 00:35:33;;;;;;;8.50;8.10;;;19.40;29.60;;;;;;5033208;28;20411;-76
2023/07/04 00:37:58;;;;;;;8.60;8.30;;;19.40;29.60;;;;;;5032484;28;20177;-76
2023/07/04 00:40:26;;;;;;;8.90;8.30;;;19.30;30.00;;;;;;5030789;28;20177;-77
2023/07/04 00:42:56;;;;;;;8.33;7.93;;;19.20;30.90;;;;;;5031262;28;20212;-77
2023/07/04 00:45:23;;;;;;;8.40;8.00;;;19.20;30.90;;;;;;5029507;28;20497;-77
2023/07/04 00:47:53;;;;;;;8.60;8.20;;;19.10;31.40;;;;;;5016837;28;20431;-77
2023/07/04 00:50:32;;;;;;;9.20;8.70;;;19.20;31.50;;;;;;5013423;28;20392;-77
2023/07/04 00:53:02;;;;;;;9.07;8.67;;;19.20;31.70;;;;;;5008752;28;20458;-77
2023/07/04 00:55:30;;;;;;;8.80;8.30;;;19.10;32.00;;;;;;5011351;28;20412;-77
2023/07/04 00:57:55;;;;;;;9.57;9.07;;;19.20;32.00;;;;;;5011605;28;20491;-77
2023/07/04 01:00:25;;;;;;;9.10;8.63;;;19.20;32.10;;;;;;5013616;28;20495;-76
2023/07/04 01:02:58;;;;;;;8.73;8.10;;;19.10;32.60;;;;;;5010616;28;20232;-77
2023/07/04 01:05:52;;;;;;;8.20;7.80;;;19.00;32.90;;;;;;5011443;28;20431;-77
2023/07/04 01:08:36;;;;;;;9.33;8.63;;;19.00;33.10;;;;;;5011135;28;20416;-77
2023/07/04 01:11:05;;;;;;;9.07;8.67;;;19.10;32.90;;;;;;5010673;28;20503;-77
2023/07/04 01:13:33;;;;;;;9.47;8.90;;;19.10;32.70;;;;;;5010591;28;20452;-77
2023/07/04 01:16:03;;;;;;;9.10;8.63;;;19.10;32.80;;;;;;5010380;28;20794;-76
2023/07/04 01:18:30;;;;;;;9.03;8.53;;;19.30;32.50;;;;;;5009243;28;20923;-77
2023/07/04 01:20:58;;;;;;;8.73;8.33;;;19.20;32.60;;;;;;5011076;28;20918;-77
2023/07/04 01:23:30;;;;;;;9.10;8.63;;;19.20;33.00;;;;;;5010213;28;20472;-77
2023/07/04 01:26:09;;;;;;;9.30;8.83;;;19.20;33.20;;;;;;5011301;28;20410;-77
2023/07/04 01:28:35;;;;;;;9.00;8.60;;;19.10;32.90;;;;;;5012171;28;20902;-76
2023/07/04 01:31:01;;;;;;;9.00;8.60;;;19.10;33.30;;;;;;5012197;28;20440;-77
2023/07/04 01:33:26;;;;;;;9.10;8.70;;;19.00;33.30;;;;;;5009505;28;20605;-76
2023/07/04 01:35:52;;;;;;;8.63;8.23;;;19.00;33.60;;;;;;5010721;28;20540;-77
2023/07/04 01:38:17;;;;;;;8.77;8.37;;;19.10;33.20;;;;;;5009533;28;20173;-77
2023/07/04 01:40:43;;;;;;;9.70;9.03;;;19.30;32.80;;;;;;5010122;28;20177;-77
2023/07/04 01:43:08;;;;;;;8.90;8.50;;;19.40;32.10;;;;;;5010715;28;20205;-76
2023/07/04 01:45:34;;;;;;;9.03;8.60;;;19.40;31.80;;;;;;5007961;28;20652;-77
2023/07/04 01:47:59;;;;;;;9.20;8.77;;;19.50;31.70;;;;;;5010762;28;20174;-77
2023/07/04 01:50:25;;;;;;;9.00;8.60;;;19.60;31.30;;;;;;5009455;28;20220;-77
2023/07/04 01:52:51;;;;;;;9.20;8.87;;;19.60;31.10;;;;;;5008746;28;20231;-76
2023/07/04 01:55:16;;;;;;;9.27;8.77;;;19.60;31.30;;;;;;5010427;28;20177;-77
2023/07/04 01:57:42;;;;;;;9.00;8.63;;;19.70;31.00;;;;;;5009978;28;20181;-77
2023/07/04 02:00:10;;;;;;;8.87;8.37;;;19.70;30.50;;;;;;5009187;28;20173;-77
2023/07/04 02:02:37;;;;;;;9.40;9.00;;;19.70;30.60;;;;;;5009034;28;20460;-77
2023/07/04 02:05:04;;;;;;;9.60;9.00;;;19.70;31.20;;;;;;5007479;28;20424;-77
2023/07/04 02:07:29;;;;;;;8.73;8.33;;;19.60;31.00;;;;;;5010646;28;21002;-76
2023/07/04 02:09:55;;;;;;;9.40;9.00;;;19.60;31.60;;;;;;5021154;28;20491;-77
2023/07/04 02:12:20;;;;;;;9.53;9.03;;;19.60;31.40;;;;;;5029703;28;20177;-76
2023/07/04 02:14:46;;;;;;;9.47;9.07;;;19.50;31.80;;;;;;5027628;28;20208;-77
2023/07/04 02:17:11;;;;;;;8.77;8.47;;;19.60;31.90;;;;;;5029410;28;20176;-77
2023/07/04 02:19:37;;;;;;;8.70;8.40;;;19.60;31.70;;;;;;5028608;28;20177;-77
2023/07/04 02:22:02;;;;;;;9.20;8.90;;;19.70;31.40;;;;;;5027631;28;20240;-77
2023/07/04 02:24:28;;;;;;;9.63;9.23;;;19.60;31.70;;;;;;5027360;28;20659;-76
2023/07/04 02:26:54;;;;;;;9.00;8.63;;;19.50;32.30;;;;;;5029170;28;20208;-77
2023/07/04 02:29:19;;;;;;;10.00;9.53;;;19.40;32.50;;;;;;5029332;28;20700;-77
2023/07/04 02:31:45;;;;;;;9.17;8.73;;;19.40;32.50;;;;;;5028528;28;20199;-76
2023/07/04 02:34:10;;;;;;;9.83;9.33;;;19.40;32.30;;;;;;5029811;28;20249;-77
2023/07/04 02:36:36;;;;;;;9.20;8.80;;;19.40;32.70;;;;;;5029260;28;20180;-77
2023/07/04 02:39:01;;;;;;;9.73;9.30;;;19.40;32.70;;;;;;5026800;28;20246;-77
2023/07/04 02:41:29;;;;;;;8.57;8.27;;;19.30;33.00;;;;;;5030506;28;20200;-77
2023/07/04 02:43:57;;;;;;;9.30;8.90;;;19.10;33.90;;;;;;5030677;28;20197;-77
2023/07/04 02:46:22;;;;;;;9.53;9.03;;;19.10;34.00;;;;;;5031815;28;20407;-77
2023/07/04 02:48:48;;;;;;;9.53;9.13;;;19.10;33.50;;;;;;5032062;28;20429;-77
2023/07/04 02:51:13;;;;;;;9.73;9.33;;;19.10;33.60;;;;;;5030928;28;20214;-77
2023/07/04 02:53:39;;;;;;;9.30;8.80;;;19.00;33.90;;;;;;5031723;28;20697;-77
2023/07/04 02:56:04;;;;;;;9.57;9.20;;;19.00;33.90;;;;;;5030767;28;20251;-78
2023/07/04 02:58:30;;;;;;;8.70;8.30;;;19.00;33.70;;;;;;5030377;28;20172;-77
2023/07/04 03:00:56;;;;;;;9.10;8.73;;;19.00;34.20;;;;;;5031999;28;20168;-77
2023/07/04 03:03:22;;;;;;;8.97;8.67;;;18.90;34.20;;;;;;5031437;28;20242;-77
2023/07/04 03:05:47;;;;;;;9.60;9.10;;;19.00;34.20;;;;;;5033837;28;20423;-77
2023/07/04 03:08:13;;;;;;;10.07;9.57;;;18.90;34.20;;;;;;5033348;28;20473;-77
2023/07/04 03:10:38;;;;;;;9.20;8.80;;;18.90;34.50;;;;;;5031724;28;20165;-78
2023/07/04 03:13:04;;;;;;;9.77;9.27;;;18.90;34.20;;;;;;5031655;28;20275;-77
2023/07/04 03:15:30;;;;;;;9.80;9.30;;;18.90;34.30;;;;;;5030765;28;20192;-78
2023/07/04 03:17:55;;;;;;;8.73;8.40;;;18.90;34.20;;;;;;5030326;28;20272;-77
2023/07/04 03:20:21;;;;;;;9.47;9.07;;;19.00;34.20;;;;;;5033492;28;20203;-77
2023/07/04 03:22:46;;;;;;;9.40;9.00;;;19.00;34.10;;;;;;5028778;28;20787;-77
2023/07/04 03:25:15;;;;;;;9.20;8.80;;;19.00;33.60;;;;;;5032708;28;20181;-77
2023/07/04 03:27:41;;;;;;;9.30;9.00;;;18.90;34.50;;;;;;5030815;28;20176;-77
2023/07/04 03:30:10;;;;;;;9.20;8.80;;;18.90;34.20;;;;;;5031266;28;20445;-75
2023/07/04 03:32:35;;;;;;;9.67;9.33;;;18.80;34.50;;;;;;5028032;28;20481;-76
2023/07/04 03:35:01;;;;;;;9.53;9.13;;;18.80;34.70;;;;;;5032702;28;20419;-76
2023/07/04 03:37:31;;;;;;;9.50;9.00;;;18.80;34.60;;;;;;5030338;28;20235;-76
2023/07/04 03:39:57;;;;;;;9.60;9.23;;;18.80;34.80;;;;;;5031324;28;20886;-76
2023/07/04 03:42:24;;;;;;;9.90;9.50;;;18.80;34.60;;;;;;5033213;28;20459;-76
2023/07/04 03:44:50;;;;;;;10.13;9.73;;;18.90;34.20;;;;;;5030541;28;20427;-76
2023/07/04 03:47:16;;;;;;;10.00;9.60;;;18.90;34.20;;;;;;5031546;28;20407;-76
2023/07/04 03:49:41;;;;;;;9.93;9.40;;;19.00;34.20;;;;;;5031530;28;20376;-76
2023/07/04 03:52:07;;;;;;;10.03;9.60;;;19.00;33.90;;;;;;5030735;28;20200;-76
2023/07/04 03:54:33;;;;;;;10.10;9.63;;;19.00;34.00;;;;;;5028924;28;20203;-77
2023/07/04 03:56:59;;;;;;;10.07;9.60;;;18.90;34.30;;;;;;5031771;28;20415;-76
2023/07/04 03:59:24;;;;;;;9.90;9.40;;;19.00;34.20;;;;;;5010602;28;20671;-76
2023/07/04 04:01:50;;;;;;;9.37;9.07;;;19.00;34.20;;;;;;5011197;28;20217;-76
2023/07/04 04:04:15;;;;;;;9.13;8.73;;;19.00;33.80;;;;;;5007265;28;20571;-76
2023/07/04 04:06:41;;;;;;;10.20;9.70;;;19.00;33.90;;;;;;5010395;28;20603;-76
2023/07/04 04:09:06;;;;;;;10.10;9.70;;;19.00;33.90;;;;;;5024060;28;20706;-76
2023/07/04 04:11:32;;;;;;;9.40;9.00;;;19.20;33.40;;;;;;5031533;28;20187;-76
2023/07/04 04:13:58;;;;;;;9.57;9.27;;;19.10;33.70;;;;;;5032510;28;20299;-76
2023/07/04 04:16:23;;;;;;;10.07;9.67;;;19.10;33.50;;;;;;5029830;28;20661;-76
2023/07/04 04:18:51;;;;;;;9.50;9.10;;;19.10;33.40;;;;;;5031963;28;20181;-76
2023/07/04 04:21:17;;;;;;;9.70;9.40;;;19.10;33.80;;;;;;5030446;28;20184;-76
2023/07/04 04:23:43;;;;;;;10.80;10.40;;;19.00;33.50;;;;;;5031816;28;20436;-75
2023/07/04 04:26:09;;;;;;;10.20;9.60;;;19.00;33.70;;;;;;5030813;28;20407;-76
2023/07/04 04:28:34;;;;;;;10.03;9.63;;;19.00;33.70;;;;;;5031264;28;20157;-75
2023/07/04 04:31:00;;;;;;;10.10;9.70;;;19.00;33.90;;;;;;5029827;28;20412;-76
2023/07/04 04:33:25;;;;;;;9.63;9.13;;;19.00;33.80;;;;;;5029050;28;20224;-76
2023/07/04 04:35:51;;;;;;;9.73;9.40;;;19.00;33.90;;;;;;5030749;28;20184;-76
2023/07/04 04:38:17;;;;;;;9.93;9.50;;;19.00;34.20;;;;;;5030315;28;20742;-76
2023/07/04 04:40:43;;;;;;;9.80;9.40;;;19.00;34.10;;;;;;5031824;28;20208;-76
2023/07/04 04:43:09;;;;;;;10.10;9.60;;;18.90;34.20;;;;;;5028169;28;20635;-76
2023/07/04 04:45:35;;;;;;;10.30;9.80;;;19.00;34.20;;;;;;5029729;28;20499;-76
2023/07/04 04:48:01;;;;;;;9.80;9.40;;;19.00;34.10;;;;;;5029598;28;20498;-76
2023/07/04 04:50:30;;;;;;;9.83;9.33;;;19.10;34.10;;;;;;5031837;28;20235;-76
2023/07/04 04:52:57;;;;;;;9.13;8.73;;;19.10;33.70;;;;;;5028716;28;20510;-76
2023/07/04 04:55:23;;;;;;;9.60;9.30;;;19.10;33.80;;;;;;5030190;28;20408;-76
2023/07/04 04:57:48;;;;;;;9.17;8.87;;;19.10;34.00;;;;;;5030077;28;20846;-76
2023/07/04 05:00:16;;;;;;;8.90;8.60;;;19.10;33.90;;;;;;5020853;28;20515;-78
2023/07/04 05:02:42;;;;;;;9.57;9.20;;;19.10;34.60;;;;;;5008461;28;20569;-77
2023/07/04 05:05:08;;;;;;;10.13;9.73;;;19.10;33.70;;;;;;5011602;28;20412;-77
2023/07/04 05:07:34;;;;;;;9.43;9.03;;;19.20;33.70;;;;;;5008975;28;20422;-77
2023/07/04 05:10:02;;;;;;;9.33;8.93;;;19.30;32.90;;;;;;5012700;28;20498;-77
2023/07/04 05:12:27;;;;;;;10.03;9.57;;;19.30;32.80;;;;;;5010689;28;20432;-76
2023/07/04 05:14:53;;;;;;;10.50;10.00;;;19.30;32.70;;;;;;5008958;28;20464;-77
2023/07/04 05:17:18;;;;;;;10.07;9.67;;;19.30;32.60;;;;;;5010930;28;20181;-77
2023/07/04 05:19:48;;;;;;;10.50;9.70;;;19.30;32.40;;;;;;5012425;28;20253;-77
2023/07/04 05:22:14;;;;;;;10.50;9.63;;;19.40;32.20;;;;;;5011240;28;20201;-76
2023/07/04 05:24:40;;;;;;;9.97;9.57;;;19.40;31.70;;;;;;5012654;28;20504;-77
2023/07/04 05:27:05;;;;;;;9.77;9.07;;;19.40;31.50;;;;;;5011527;28;20166;-76
2023/07/04 05:29:31;;;;;;;10.77;10.20;;;19.50;31.50;;;;;;5012717;28;20197;-76
2023/07/04 05:31:56;;;;;;;9.73;9.10;;;19.40;31.40;;;;;;5012551;28;20231;-76
2023/07/04 05:34:23;;;;;;;10.10;9.70;;;19.50;31.60;;;;;;5011774;28;20205;-76
2023/07/04 05:36:48;;;;;;;9.90;9.20;;;19.50;31.20;;;;;;5013046;28;20173;-76
2023/07/04 05:39:14;;;;;;;11.77;11.10;;;19.40;31.60;;;;;;5011767;28;20992;-76
2023/07/04 05:41:39;;;;;;;9.77;9.27;;;19.50;31.10;;;;;;5010148;28;20589;-77
2023/07/04 05:44:10;;;;;;;9.60;9.20;;;19.60;30.70;;;;;;5012928;28;20185;-76
2023/07/04 05:46:36;;;;;;;10.00;9.50;;;19.50;30.70;;;;;;5011754;28;20782;-77
2023/07/04 05:49:02;;;;;;;10.37;9.77;;;19.50;30.60;;;;;;5013200;28;21077;-76
2023/07/04 05:51:29;;;;;;;10.37;9.40;;;19.60;30.10;;;;;;5012764;28;20451;-77
2023/07/04 05:53:55;;;;;;;10.17;9.47;;;19.60;29.90;;;;;;5012801;28;20468;-76
2023/07/04 05:56:25;;;;;;;10.27;9.77;;;19.60;29.70;;;;;;5012431;28;20408;-76
2023/07/04 05:58:55;;;;;;;10.60;9.90;;;19.60;29.70;;;;;;5012881;28;20474;-77
2023/07/04 06:01:33;;;;;;;10.10;9.53;;;19.70;29.80;;;;;;5012275;28;20918;-77
2023/07/04 06:04:00;;;;;;;9.10;8.50;;;19.70;29.80;;;;;;5012037;28;20420;-76
2023/07/04 06:06:27;;;;;;;9.77;9.37;;;19.70;29.60;;;;;;5011974;28;20896;-76
2023/07/04 06:08:54;;;;;;;9.47;9.00;;;19.70;29.30;;;;;;5012435;28;20405;-76
2023/07/04 06:11:22;;;;;;;9.90;9.40;;;19.70;29.30;;;;;;5012566;28;20496;-75
2023/07/04 06:13:48;;;;;;;9.60;9.10;;;19.80;28.80;;;;;;5012640;28;20451;-76
2023/07/04 06:16:13;;;;;;;9.27;8.43;;;19.90;29.20;;;;;;5013542;28;20405;-75
2023/07/04 06:18:39;;;;;;;9.87;9.40;;;20.00;28.30;;;;;;5014505;28;20177;-77
2023/07/04 06:21:11;;;;;;;9.83;9.33;;;20.00;27.90;;;;;;5013863;28;20174;-77
2023/07/04 06:23:37;;;;;;;9.73;9.00;;;19.90;27.70;;;;;;5013419;28;20468;-77
2023/07/04 06:26:03;;;;;;;10.00;9.20;;;20.00;27.70;;;;;;5014026;28;20407;-77
2023/07/04 06:28:29;;;;;;;9.83;9.13;;;20.10;27.00;;;;;;5018927;28;20921;-75
2023/07/04 06:30:54;;;;;;;10.03;9.53;;;20.10;26.30;;;;;;5017924;28;20421;-76
2023/07/04 06:33:20;;;;;;;14.90;11.70;;;20.20;26.00;;;;;;5018758;28;20192;-75
2023/07/04 06:35:45;;;;;;;12.23;10.10;;;20.20;25.60;;;;;;5019898;28;20173;-77
2023/07/04 06:38:11;;;;;;;9.53;9.00;;;20.20;25.40;;;;;;5024934;28;20188;-77
2023/07/04 06:40:37;;;;;;;9.30;8.80;;;20.30;25.60;;;;;;5019422;28;20181;-77
2023/07/04 06:43:05;;;;;;;9.80;9.20;;;20.30;25.80;;;;;;5019604;28;20462;-75
2023/07/04 06:45:31;;;;;;;10.23;9.30;;;20.30;25.30;;;;;;5017752;28;20234;-75
2023/07/04 06:47:57;;;;;;;9.70;9.20;;;20.30;24.60;;;;;;5017444;28;20523;-75
2023/07/04 06:50:23;;;;;;;10.33;9.73;;;20.40;24.60;;;;;;5018699;28;20422;-75
2023/07/04 06:52:48;;;;;;;9.13;8.73;;;20.40;24.80;;;;;;5016450;28;20838;-77
2023/07/04 06:55:14;;;;;;;10.73;10.03;;;20.40;24.80;;;;;;5016622;28;20541;-76
2023/07/04 06:57:40;;;;;;;9.63;9.03;;;20.50;24.50;;;;;;5018999;28;20260;-75
2023/07/04 07:00:06;;;;;;;9.00;8.50;;;20.50;24.20;;;;;;5018530;28;20177;-76
2023/07/04 07:02:32;;;;;;;10.10;9.17;;;20.50;24.20;;;;;;5017474;28;20229;-74
2023/07/04 07:04:58;;;;;;;9.33;8.43;;;20.60;23.90;;;;;;5018545;28;20961;-74
2023/07/04 07:07:23;;;;;;;8.27;7.57;;;20.60;23.30;;;;;;5018516;28;20408;-74
2023/07/04 07:09:49;;;;;;;11.53;10.63;;;20.60;23.00;;;;;;5018029;28;20448;-74
2023/07/04 07:12:14;;;;;;;9.70;8.87;;;20.70;22.70;;;;;;5017158;28;20176;-76
2023/07/04 07:14:40;;;;;;;9.40;8.70;;;20.70;22.60;;;;;;5015828;28;20223;-74
2023/07/04 07:17:06;;;;;;;8.40;8.00;;;20.70;22.80;;;;;;5014573;28;20660;-75
2023/07/04 07:19:32;;;;;;;9.57;8.87;;;20.70;22.70;;;;;;5016045;28;20613;-74
2023/07/04 07:22:00;;;;;;;8.80;8.30;;;20.80;21.40;;;;;;5015599;28;20474;-74
2023/07/04 07:24:27;;;;;;;9.03;8.40;;;20.70;22.20;;;;;;5016105;28;20519;-74
2023/07/04 07:26:53;;;;;;;10.17;9.40;;;20.80;22.20;;;;;;5016732;28;20439;-75
2023/07/04 07:29:18;;;;;;;9.33;8.50;;;20.70;22.40;;;;;;5018293;28;20408;-74
2023/07/04 07:31:44;;;;;;;9.07;8.57;;;20.70;22.60;;;;;;5016830;28;20170;-75
2023/07/04 07:34:09;;;;;;;10.13;9.37;;;20.70;23.00;;;;;;5018185;28;20195;-75
2023/07/04 07:36:38;;;;;;;10.10;9.43;;;20.70;22.70;;;;;;5017391;28;20170;-74
2023/07/04 07:39:08;;;;;;;10.00;9.10;;;20.60;22.10;;;;;;5014648;28;20166;-74
2023/07/04 07:41:37;;;;;;;9.90;9.20;;;20.60;22.10;;;;;;5013218;28;20427;-74
2023/07/04 07:44:06;;;;;;;8.80;8.20;;;20.50;22.00;;;;;;5013805;28;20515;-78
2023/07/04 07:46:32;;;;;;;9.50;8.90;;;20.50;22.00;;;;;;5015651;28;20419;-77
2023/07/04 07:48:58;;;;;;;10.80;10.00;;;20.50;22.10;;;;;;5014065;28;20775;-77
2023/07/04 07:51:24;;;;;;;9.03;8.43;;;20.60;22.10;;;;;;5014075;28;20232;-77
2023/07/04 07:53:53;;;;;;;10.33;9.53;;;20.70;22.20;;;;;;5014759;28;20433;-77
2023/07/04 07:56:20;;;;;;;9.50;8.90;;;20.70;22.20;;;;;;5013593;28;20503;-76
2023/07/04 07:58:46;;;;;;;9.93;9.13;;;20.80;20.40;;;;;;5014673;28;20411;-76
2023/07/04 08:01:13;;;;;;;9.70;8.90;;;20.90;20.00;;;;;;5014228;28;20759;-75
2023/07/04 08:03:40;;;;;;;10.83;10.13;;;21.00;20.00;;;;;;5014325;28;20205;-75
2023/07/04 08:06:08;;;;;;;10.27;9.40;;;21.00;19.60;;;;;;5014687;28;20516;-75
2023/07/04 08:08:33;;;;;;;9.93;9.10;;;20.90;19.50;;;;;;5014419;28;20414;-75
2023/07/04 08:10:59;;;;;;;9.03;8.40;;;20.90;18.70;;;;;;5014486;28;20409;-75
2023/07/04 08:13:24;;;;;;;8.70;8.10;;;21.00;18.40;;;;;;5013555;28;20209;-76
2023/07/04 08:15:52;;;;;;;9.40;8.70;;;21.00;18.90;;;;;;5013718;28;20184;-75
2023/07/04 08:18:19;;;;;;;9.80;9.20;;;21.10;18.40;;;;;;5014358;28;20639;-74
2023/07/04 08:20:55;;;;;;;10.27;9.57;;;21.10;19.10;;;;;;5012932;28;20478;-76
2023/07/04 12:39:20;;;;;;;10.27;9.40;;;23.30;10.60;;;;;;5149001;27;20365;-65
2023/07/04 12:41:46;;;;;;;9.70;9.10;;;23.90;9.30;;;;;;5102067;27;20457;-64
2023/07/04 12:44:14;;;;;;;9.70;8.80;;;23.90;9.40;;;;;;5112586;27;20793;-64
2023/07/04 12:46:42;;;;;;;9.77;9.07;;;23.90;9.30;;;;;;5105740;28;20427;-63
2023/07/04 12:49:10;;;;;;;9.35;8.75;;;24.20;8.40;;;;;;4947511;28;1960607;-63
2023/07/04 12:51:38;;;;;;;9.80;9.23;;;24.20;8.60;;;;;;4946622;28;20202;-62
2023/07/04 12:54:05;;;;;;;9.90;9.30;;;24.20;8.80;;;;;;4959858;28;20437;-63
2023/07/04 12:56:32;;;;;;;9.67;8.87;;;24.20;8.10;;;;;;4962873;28;20933;-61
2023/07/04 12:58:58;;;;;;;10.70;10.00;;;24.20;8.40;;;;;;4939614;28;20472;-61
2023/07/04 13:01:31;;;;;;;10.73;10.00;;;24.10;8.70;;;;;;4949492;28;20419;-61
2023/07/04 13:04:20;;;;;;;9.57;8.80;;;24.10;8.60;;;;;;4945210;28;20658;-61
2023/07/04 13:06:51;;;;;;;8.90;8.40;;;24.10;8.90;;;;;;4946620;28;20426;-62
2023/07/04 13:09:17;;;;;;;9.00;8.43;;;24.10;8.60;;;;;;4961275;28;20411;-62
2023/07/04 13:11:47;;;;;;;10.27;9.57;;;24.30;8.10;;;;;;4938722;28;20797;-62
2023/07/04 13:14:12;;;;;;;9.20;8.47;;;24.50;7.20;;;;;;4949367;28;21004;-65
2023/07/04 13:16:38;;;;;;;9.67;8.97;;;24.50;7.20;;;;;;4944690;28;20478;-68
2023/07/04 13:19:10;;;;;;;8.77;8.17;;;24.50;7.20;;;;;;4946875;28;20186;-68
2023/07/04 13:21:37;;;;;;;10.50;9.60;;;24.50;7.70;;;;;;4941908;28;20426;-67
2023/07/04 13:24:31;;;;;;;10.37;9.57;;;24.40;7.70;;;;;;4945275;29;20510;-67
2023/07/04 13:27:26;;;;;;;9.37;8.70;;;24.30;8.10;;;;;;4944336;28;20433;-69
2023/07/04 13:29:56;;;;;;;9.50;8.90;;;24.30;7.10;;;;;;4951193;28;20457;-68
2023/07/04 13:32:25;;;;;;;9.33;8.63;;;24.20;7.30;;;;;;4962097;28;20415;-62
2023/07/04 13:34:52;;;;;;;9.33;8.43;;;24.20;7.70;;;;;;4967311;28;20426;-63
2023/07/04 13:37:18;;;;;;;8.77;8.17;;;24.10;8.00;;;;;;4943167;28;20473;-66
2023/07/04 13:39:44;;;;;;;9.53;8.73;;;24.10;8.10;;;;;;4947215;28;20788;-61
2023/07/04 13:42:11;;;;;;;8.63;7.93;;;24.10;7.70;;;;;;4929063;29;20424;-62
2023/07/04 13:44:37;;;;;;;9.33;8.70;;;24.00;8.00;;;;;;4934138;29;20645;-63
2023/07/04 13:47:06;;;;;;;8.40;7.90;;;24.00;8.30;;;;;;4932062;29;20423;-64
2023/07/04 13:49:32;;;;;;;8.73;8.23;;;24.00;8.30;;;;;;4957437;28;20190;-63
2023/07/04 13:51:58;;;;;;;8.97;8.27;;;23.90;8.30;;;;;;4984440;28;20499;-63
2023/07/04 13:54:23;;;;;;;8.70;7.70;;;24.00;8.40;;;;;;4985633;28;20512;-62
2023/07/04 13:56:49;;;;;;;7.87;7.20;;;24.00;8.20;;;;;;4982127;28;20495;-61
2023/07/04 13:59:15;;;;;;;8.53;7.93;;;24.00;8.10;;;;;;4982728;28;20183;-62
2023/07/04 14:01:40;;;;;;;8.00;7.50;;;24.10;8.50;;;;;;4998823;28;20274;-62
2023/07/04 14:04:06;;;;;;;8.30;7.70;;;24.10;8.10;;;;;;4985396;28;20182;-63
2023/07/04 14:06:31;;;;;;;8.77;7.93;;;24.20;7.90;;;;;;4983413;28;20175;-62
2023/07/04 14:08:57;;;;;;;8.77;8.17;;;24.20;7.80;;;;;;4985008;28;20212;-63
2023/07/04 14:11:23;;;;;;;12.10;8.10;;;24.20;7.80;;;;;;4982874;28;20233;-62
2023/07/04 14:13:51;;;;;;;7.60;7.07;;;24.20;8.20;;;;;;4990517;28;20184;-63
2023/07/04 14:16:20;;;;;;;7.30;6.90;;;24.30;8.10;;;;;;4981784;28;20559;-63
2023/07/04 14:18:46;;;;;;;7.27;6.77;;;24.30;7.50;;;;;;5003844;28;20825;-63
2023/07/04 14:21:14;;;;;;;5.83;5.53;;;24.40;7.20;;;;;;4981460;28;20429;-64
2023/07/04 14:23:40;;;;;;;8.17;7.00;;;24.50;7.20;;;;;;5003052;28;20209;-63
2023/07/04 14:26:13;;;;;;;6.23;5.93;;;24.60;7.30;;;;;;4985499;28;21028;-61
2023/07/04 14:28:38;;;;;;;6.57;6.17;;;24.70;6.70;;;;;;4983325;28;20427;-63
2023/07/04 14:31:04;;;;;;;6.50;6.10;;;24.80;6.70;;;;;;4992725;28;20421;-63
2023/07/04 14:33:30;;;;;;;7.13;6.37;;;24.90;6.30;;;;;;4984749;28;20189;-64
2023/07/04 14:35:56;;;;;;;7.20;6.13;;;24.90;6.30;;;;;;4992725;28;20417;-62
2023/07/04 14:38:21;;;;;;;6.10;5.80;;;24.90;6.90;;;;;;4984571;28;20531;-62
2023/07/04 14:40:47;;;;;;;8.10;7.40;;;24.90;6.70;;;;;;4981765;28;20183;-62
2023/07/04 14:43:13;;;;;;;6.50;6.20;;;24.80;7.20;;;;;;4980388;28;20257;-63
2023/07/04 14:45:38;;;;;;;6.87;6.20;;;24.90;6.50;;;;;;4992365;28;20178;-64
2023/07/04 14:48:04;;;;;;;7.23;6.63;;;25.00;6.00;;;;;;4992012;28;20193;-65
2023/07/04 14:50:30;;;;;;;6.43;6.13;;;25.00;6.50;;;;;;4996968;28;20209;-65
2023/07/04 14:52:56;;;;;;;9.23;8.47;;;25.00;6.30;;;;;;4986185;28;20450;-64
2023/07/04 14:55:22;;;;;;;7.20;6.80;;;25.00;6.60;;;;;;4981323;28;20631;-65
2023/07/04 14:57:48;;;;;;;6.70;6.20;;;25.00;6.70;;;;;;4970113;28;20580;-67
2023/07/04 15:00:16;;;;;;;7.18;6.57;;;25.00;6.20;;;;;;4975063;28;20409;-67
2023/07/04 15:02:42;;;;;;;5.53;5.30;;;25.10;6.10;;;;;;4987339;28;20182;-67
2023/07/04 15:05:10;;;;;;;5.87;5.47;;;25.10;6.20;;;;;;4974185;28;20528;-68
2023/07/04 15:07:36;;;;;;;6.90;6.40;;;25.20;6.00;;;;;;4988324;28;20452;-66
2023/07/04 15:10:02;;;;;;;6.97;6.47;;;25.30;6.00;;;;;;4976184;28;20417;-64
2023/07/04 15:12:27;;;;;;;7.03;6.63;;;25.30;5.90;;;;;;4989623;28;20643;-65
2023/07/04 15:14:53;;;;;;;5.60;5.30;;;25.30;6.00;;;;;;4988064;28;20421;-68
2023/07/04 15:17:19;;;;;;;6.37;5.97;;;25.30;5.80;;;;;;4975365;28;20214;-69
2023/07/04 15:19:44;;;;;;;6.43;6.13;;;25.20;6.20;;;;;;4972638;28;20309;-66
2023/07/04 15:22:11;;;;;;;6.33;5.93;;;25.20;6.30;;;;;;4968334;28;20183;-66
2023/07/04 15:24:37;;;;;;;6.40;6.00;;;25.30;6.30;;;;;;4973439;28;20178;-64
2023/07/04 15:27:03;;;;;;;6.73;6.33;;;25.20;5.70;;;;;;4986068;28;20438;-72
2023/07/04 15:29:28;;;;;;;5.70;5.50;;;25.20;5.80;;;;;;4974389;28;20638;-64
2023/07/04 15:31:54;;;;;;;6.67;6.10;;;25.10;5.80;;;;;;4986509;28;20198;-66
2023/07/04 15:34:21;;;;;;;7.50;7.00;;;25.10;6.20;;;;;;4975658;28;20808;-68
2023/07/04 15:37:07;;;;;;;6.43;6.00;;;25.10;6.30;;;;;;4985129;28;20456;-65
2023/07/04 15:39:32;;;;;;;6.93;6.53;;;25.10;6.10;;;;;;4974635;28;20417;-68
2023/07/04 15:41:58;;;;;;;6.77;6.27;;;25.10;6.40;;;;;;4988659;28;20425;-69
2023/07/04 15:44:23;;;;;;;6.83;6.43;;;25.10;6.70;;;;;;4975393;28;20174;-68
2023/07/04 15:46:49;;;;;;;6.80;6.33;;;25.10;6.20;;;;;;4966615;28;20635;-70
2023/07/04 15:49:15;;;;;;;7.47;6.53;;;25.10;6.50;;;;;;4993343;28;20189;-68
2023/07/04 15:51:40;;;;;;;6.47;6.03;;;25.00;7.00;;;;;;5004089;28;20306;-63
2023/07/04 15:54:06;;;;;;;10.70;6.90;;;25.00;6.20;;;;;;4998181;28;20209;-68
2023/07/04 15:56:33;;;;;;;9.93;8.97;;;25.00;6.40;;;;;;4997036;28;20173;-66
2023/07/04 15:58:58;;;;;;;10.63;8.03;;;25.00;6.20;;;;;;4997800;28;20263;-65
2023/07/04 16:01:24;;;;;;;7.53;7.13;;;24.90;6.20;;;;;;5014256;28;20423;-66
2023/07/04 16:03:50;;;;;;;8.10;7.60;;;24.90;6.40;;;;;;5001749;28;20181;-65
2023/07/04 16:06:15;;;;;;;8.00;7.50;;;25.00;6.50;;;;;;5002474;28;20181;-67
2023/07/04 16:08:41;;;;;;;9.00;8.40;;;25.10;6.50;;;;;;4992902;28;20232;-63
2023/07/04 16:11:13;;;;;;;6.77;6.47;;;25.20;6.20;;;;;;5002311;28;20545;-67
2023/07/04 16:13:40;;;;;;;8.27;7.70;;;25.10;6.30;;;;;;4992629;28;20903;-62
2023/07/04 16:16:07;;;;;;;7.90;7.30;;;25.10;6.00;;;;;;5002182;28;20435;-65
2023/07/04 16:18:34;;;;;;;7.40;7.00;;;25.20;6.10;;;;;;4995897;28;20510;-62
2023/07/04 16:21:00;;;;;;;8.20;7.60;;;25.30;6.30;;;;;;5002789;28;20416;-61
2023/07/04 16:23:25;;;;;;;9.07;8.50;;;25.30;6.30;;;;;;5013957;28;20557;-69
2023/07/04 16:25:51;;;;;;;8.87;8.37;;;25.20;6.20;;;;;;4995714;28;20178;-67
2023/07/04 16:28:17;;;;;;;8.07;7.33;;;25.20;6.30;;;;;;4997763;28;20209;-67
2023/07/04 16:30:43;;;;;;;8.00;7.60;;;25.10;6.60;;;;;;4993954;28;20264;-67
2023/07/04 16:33:09;;;;;;;7.97;7.47;;;25.00;6.60;;;;;;4999139;28;20196;-67
2023/07/04 16:35:35;;;;;;;8.17;7.67;;;25.00;7.20;;;;;;5005181;28;20450;-66
2023/07/04 16:38:00;;;;;;;8.37;7.90;;;25.00;7.00;;;;;;4996872;28;20464;-65
2023/07/04 16:40:26;;;;;;;9.20;8.30;;;24.90;7.50;;;;;;5016278;28;21006;-64
2023/07/04 16:42:52;;;;;;;8.20;7.80;;;24.90;7.40;;;;;;5001974;28;20232;-65
2023/07/04 16:45:18;;;;;;;9.10;8.50;;;24.90;7.50;;;;;;5002096;28;20188;-66
2023/07/04 16:47:44;;;;;;;8.10;7.60;;;24.80;7.40;;;;;;4992890;28;20637;-63
2023/07/04 16:50:10;;;;;;;8.20;7.70;;;24.90;7.50;;;;;;4990270;28;20452;-63
2023/07/04 16:52:36;;;;;;;9.00;8.40;;;24.80;7.40;;;;;;5006864;28;20178;-63
2023/07/04 16:55:02;;;;;;;8.90;8.20;;;24.80;7.40;;;;;;4990865;28;20520;-62
2023/07/04 16:57:28;;;;;;;8.90;8.40;;;24.80;7.40;;;;;;5004307;28;20709;-63
2023/07/04 16:59:54;;;;;;;8.57;8.00;;;24.80;7.80;;;;;;4990495;28;20461;-63
2023/07/04 17:02:19;;;;;;;8.63;7.80;;;24.80;7.50;;;;;;5002672;28;20182;-63